createdAt,value
2018-05-14T00:00:15.366Z,17.39
2018-05-14T00:01:15.328Z,17.33
2018-05-14T00:02:15.098Z,17.34
2018-05-14T00:03:15.393Z,17.42
2018-05-14T00:04:15.404Z,17.44
2018-05-14T00:05:15.422Z,17.56
2018-05-14T00:06:15.194Z,17.49
2018-05-14T00:07:15.212Z,17.49
2018-05-14T00:08:15.482Z,17.45
2018-05-14T00:09:15.504Z,17.38
2018-05-14T00:10:15.023Z,17.44
2018-05-14T00:11:15.046Z,17.41
2018-05-14T00:12:15.595Z,17.48
2018-05-14T00:13:15.346Z,17.49
2018-05-14T00:14:15.632Z,17.49
2018-05-14T00:15:15.439Z,17.41
2018-05-14T00:16:15.670Z,17.3
2018-05-14T00:17:15.426Z,17.34
2018-05-14T00:18:15.450Z,17.33
2018-05-14T00:19:15.730Z,17.31
2018-05-14T00:20:15.748Z,17.3
2018-05-14T00:21:15.774Z,17.33
2018-05-14T00:22:15.547Z,17.42
2018-05-14T00:23:15.561Z,17.48
2018-05-14T00:24:15.844Z,17.41
2018-05-14T00:25:15.615Z,17.3
2018-05-14T00:26:15.891Z,17.31
2018-05-14T00:27:15.904Z,17.34
2018-05-14T00:28:15.931Z,17.22
2018-05-14T00:29:15.953Z,17.42
2018-05-14T00:30:15.785Z,17.3
2018-05-14T00:31:15.747Z,17.16
2018-05-14T00:32:16.017Z,17.2
2018-05-14T00:33:16.041Z,17.19
2018-05-14T00:34:16.064Z,17.29
2018-05-14T00:35:15.843Z,17.34
2018-05-14T00:36:15.607Z,17.26
2018-05-14T00:37:16.138Z,17.26
2018-05-14T00:38:16.162Z,17.27
2018-05-14T00:39:16.185Z,17.3
2018-05-14T00:40:16.257Z,17.2
2018-05-14T00:41:15.976Z,17.16
2018-05-14T00:42:15.997Z,17.26
2018-05-14T00:43:16.022Z,17.16
2018-05-14T00:44:16.307Z,17.19
2018-05-14T00:45:16.373Z,17.01
2018-05-14T00:46:16.345Z,17.08
2018-05-14T00:47:15.856Z,16.91
2018-05-14T00:48:16.131Z,17.11
2018-05-14T00:49:16.158Z,16.93
2018-05-14T00:50:16.451Z,16.96
2018-05-14T00:51:16.448Z,17.09
2018-05-14T00:52:16.476Z,17.11
2018-05-14T00:53:16.497Z,17.15
2018-05-14T00:54:16.522Z,17.12
2018-05-14T00:55:16.536Z,17.14
2018-05-14T00:56:16.557Z,17.2
2018-05-14T00:57:16.590Z,17.04
2018-05-14T00:58:16.617Z,16.89
2018-05-14T00:59:16.632Z,16.79
2018-05-14T01:00:16.703Z,16.84
2018-05-14T01:01:16.673Z,16.97
2018-05-14T01:02:16.691Z,16.93
2018-05-14T01:03:16.714Z,16.76
2018-05-14T01:04:16.509Z,16.94
2018-05-14T01:05:16.760Z,16.96
2018-05-14T01:06:16.783Z,16.84
2018-05-14T01:07:16.803Z,16.76
2018-05-14T01:08:16.589Z,16.65
2018-05-14T01:09:16.847Z,16.65
2018-05-14T01:10:16.870Z,16.66
2018-05-14T01:11:16.911Z,16.68
2018-05-14T01:12:16.921Z,16.65
2018-05-14T01:13:16.685Z,16.65
2018-05-14T01:14:16.966Z,16.71
2018-05-14T01:15:16.780Z,16.79
2018-05-14T01:16:16.496Z,16.69
2018-05-14T01:17:17.025Z,16.81
2018-05-14T01:18:16.794Z,16.78
2018-05-14T01:19:17.083Z,16.75
2018-05-14T01:20:16.588Z,16.72
2018-05-14T01:21:17.126Z,16.79
2018-05-14T01:22:17.145Z,16.9
2018-05-14T01:23:17.164Z,16.81
2018-05-14T01:24:16.932Z,16.61
2018-05-14T01:25:17.208Z,16.65
2018-05-14T01:26:17.240Z,16.61
2018-05-14T01:27:16.741Z,16.76
2018-05-14T01:28:16.759Z,16.61
2018-05-14T01:29:16.784Z,16.64
2018-05-14T01:30:17.359Z,16.71
2018-05-14T01:31:17.337Z,16.68
2018-05-14T01:32:17.379Z,16.71
2018-05-14T01:33:17.381Z,16.68
2018-05-14T01:34:17.403Z,16.57
2018-05-14T01:35:17.424Z,16.64
2018-05-14T01:36:17.430Z,16.6
2018-05-14T01:37:17.455Z,16.76
2018-05-14T01:38:17.476Z,16.81
2018-05-14T01:39:17.246Z,16.97
2018-05-14T01:40:17.525Z,17.09
2018-05-14T01:41:17.310Z,17.26
2018-05-14T01:42:17.581Z,17.23
2018-05-14T01:43:17.348Z,17.31
2018-05-14T01:44:17.370Z,17.2
2018-05-14T01:45:17.438Z,16.97
2018-05-14T01:46:17.414Z,17.05
2018-05-14T01:47:17.683Z,17.16
2018-05-14T01:48:17.710Z,17.23
2018-05-14T01:49:17.739Z,17.22
2018-05-14T01:50:17.753Z,17.06
2018-05-14T01:51:17.781Z,16.96
2018-05-14T01:52:17.817Z,16.87
2018-05-14T01:53:17.818Z,16.99
2018-05-14T01:54:17.597Z,17.06
2018-05-14T01:55:17.869Z,17.04
2018-05-14T01:56:17.894Z,16.91
2018-05-14T01:57:17.937Z,16.84
2018-05-14T01:58:17.435Z,16.75
2018-05-14T01:59:17.968Z,16.56
2018-05-14T02:00:17.779Z,16.56
2018-05-14T02:01:18.010Z,16.61
2018-05-14T02:02:18.028Z,16.58
2018-05-14T02:03:17.795Z,16.58
2018-05-14T02:04:17.818Z,16.36
2018-05-14T02:05:17.645Z,16.47
2018-05-14T02:06:18.117Z,16.57
2018-05-14T02:07:18.137Z,16.72
2018-05-14T02:08:18.160Z,16.66
2018-05-14T02:09:17.929Z,16.81
2018-05-14T02:10:18.361Z,16.89
2018-05-14T02:11:18.222Z,16.86
2018-05-14T02:12:17.990Z,16.99
2018-05-14T02:13:18.264Z,17.2
2018-05-14T02:14:18.291Z,17.14
2018-05-14T02:15:18.113Z,16.91
2018-05-14T02:16:18.082Z,16.96
2018-05-14T02:17:18.105Z,16.9
2018-05-14T02:18:18.379Z,16.96
2018-05-14T02:19:18.148Z,17.02
2018-05-14T02:20:18.474Z,16.97
2018-05-14T02:21:18.191Z,17.01
2018-05-14T02:22:18.468Z,16.79
2018-05-14T02:23:18.498Z,16.71
2018-05-14T02:24:18.003Z,16.61
2018-05-14T02:25:18.289Z,16.68
2018-05-14T02:26:18.047Z,16.68
2018-05-14T02:27:18.573Z,16.66
2018-05-14T02:28:18.595Z,16.74
2018-05-14T02:29:18.454Z,16.66
2018-05-14T02:30:18.648Z,16.78
2018-05-14T02:31:18.666Z,16.81
2018-05-14T02:32:18.695Z,16.76
2018-05-14T02:33:18.458Z,16.9
2018-05-14T02:34:18.813Z,16.91
2018-05-14T02:35:19.750Z,16.91
2018-05-14T02:36:18.779Z,16.94
2018-05-14T02:37:18.805Z,17.04
2018-05-14T02:38:18.309Z,17.05
2018-05-14T02:39:18.584Z,17.02
2018-05-14T02:40:18.612Z,17.04
2018-05-14T02:41:18.884Z,16.94
2018-05-14T02:42:18.653Z,17.06
2018-05-14T02:43:18.943Z,16.9
2018-05-14T02:44:18.950Z,16.97
2018-05-14T02:45:18.965Z,17.22
2018-05-14T02:46:18.745Z,17.27
2018-05-14T02:47:19.019Z,17.38
2018-05-14T02:48:19.061Z,17.33
2018-05-14T02:49:18.808Z,17.3
2018-05-14T02:50:19.144Z,17.36
2018-05-14T02:51:19.100Z,17.38
2018-05-14T02:52:18.873Z,17.31
2018-05-14T02:53:19.153Z,17.26
2018-05-14T02:54:18.925Z,17.34
2018-05-14T02:55:19.203Z,17.31
2018-05-14T02:56:19.219Z,17.3
2018-05-14T02:57:19.248Z,17.36
2018-05-14T02:58:19.267Z,17.38
2018-05-14T02:59:19.051Z,17.42
2018-05-14T03:00:19.313Z,17.56
2018-05-14T03:01:19.333Z,17.63
2018-05-14T03:02:19.373Z,17.46
2018-05-14T03:03:19.390Z,17.54
2018-05-14T03:04:19.396Z,17.44
2018-05-14T03:05:19.477Z,17.46
2018-05-14T03:06:19.441Z,17.52
2018-05-14T03:07:19.460Z,17.59
2018-05-14T03:08:19.493Z,17.63
2018-05-14T03:09:19.508Z,17.67
2018-05-14T03:10:19.640Z,17.49
2018-05-14T03:11:19.560Z,17.54
2018-05-14T03:12:19.580Z,17.59
2018-05-14T03:13:19.334Z,17.52
2018-05-14T03:14:19.613Z,17.52
2018-05-14T03:15:19.650Z,17.57
2018-05-14T03:16:19.657Z,17.54
2018-05-14T03:17:19.431Z,17.59
2018-05-14T03:18:19.695Z,17.51
2018-05-14T03:19:19.720Z,17.59
2018-05-14T03:20:19.805Z,17.51
2018-05-14T03:21:19.525Z,17.34
2018-05-14T03:22:19.289Z,17.39
2018-05-14T03:23:19.566Z,17.45
2018-05-14T03:24:19.843Z,17.48
2018-05-14T03:25:19.916Z,17.41
2018-05-14T03:26:19.887Z,17.31
2018-05-14T03:27:19.927Z,17.23
2018-05-14T03:28:19.427Z,17.29
2018-05-14T03:29:19.699Z,17.3
2018-05-14T03:30:19.981Z,17.31
2018-05-14T03:31:20.017Z,17.2
2018-05-14T03:32:19.769Z,17.34
2018-05-14T03:33:20.045Z,17.34
2018-05-14T03:34:20.071Z,17.11
2018-05-14T03:35:20.139Z,17.27
2018-05-14T03:36:20.114Z,17.23
2018-05-14T03:37:19.906Z,17.27
2018-05-14T03:38:20.168Z,17.14
2018-05-14T03:39:19.924Z,17.27
2018-05-14T03:40:20.200Z,17.23
2018-05-14T03:41:19.964Z,17.23
2018-05-14T03:42:20.235Z,17.26
2018-05-14T03:43:20.258Z,17.11
2018-05-14T03:44:20.284Z,17.02
2018-05-14T03:45:20.301Z,17.05
2018-05-14T03:46:20.325Z,17.26
2018-05-14T03:47:20.360Z,17.12
2018-05-14T03:48:20.375Z,17.11
2018-05-14T03:49:20.433Z,16.94
2018-05-14T03:50:20.469Z,16.93
2018-05-14T03:51:20.181Z,16.91
2018-05-14T03:52:20.470Z,16.86
2018-05-14T03:53:20.235Z,16.79
2018-05-14T03:54:20.513Z,16.96
2018-05-14T03:55:20.538Z,17.02
2018-05-14T03:56:20.563Z,16.87
2018-05-14T03:57:20.327Z,16.84
2018-05-14T03:58:20.599Z,16.76
2018-05-14T03:59:20.627Z,16.9
2018-05-14T04:00:20.665Z,16.96
2018-05-14T04:01:20.673Z,16.94
2018-05-14T04:02:20.896Z,17.01
2018-05-14T04:03:20.720Z,16.84
2018-05-14T04:04:20.740Z,16.9
2018-05-14T04:05:20.574Z,16.91
2018-05-14T04:06:20.777Z,16.81
2018-05-14T04:07:20.797Z,16.69
2018-05-14T04:08:20.968Z,16.72
2018-05-14T04:09:20.846Z,16.66
2018-05-14T04:10:20.864Z,16.58
2018-05-14T04:11:20.631Z,16.72
2018-05-14T04:12:20.921Z,16.69
2018-05-14T04:13:20.934Z,16.54
2018-05-14T04:14:20.703Z,16.58
2018-05-14T04:15:20.972Z,16.54
2018-05-14T04:16:21.029Z,16.57
2018-05-14T04:17:20.766Z,16.56
2018-05-14T04:18:21.045Z,16.69
2018-05-14T04:19:21.059Z,16.61
2018-05-14T04:20:21.139Z,16.6
2018-05-14T04:21:21.116Z,16.56
2018-05-14T04:22:21.126Z,16.51
2018-05-14T04:23:21.155Z,16.58
2018-05-14T04:24:21.288Z,16.58
2018-05-14T04:25:21.384Z,16.64
2018-05-14T04:26:21.214Z,16.66
2018-05-14T04:27:21.239Z,16.65
2018-05-14T04:28:21.276Z,16.71
2018-05-14T04:29:21.289Z,16.71
2018-05-14T04:30:21.192Z,16.65
2018-05-14T04:31:21.075Z,16.75
2018-05-14T04:32:21.355Z,16.72
2018-05-14T04:33:21.374Z,16.53
2018-05-14T04:34:21.143Z,16.57
2018-05-14T04:35:21.471Z,16.61
2018-05-14T04:36:21.445Z,16.75
2018-05-14T04:37:21.208Z,16.61
2018-05-14T04:38:21.489Z,16.6
2018-05-14T04:39:20.997Z,16.64
2018-05-14T04:40:21.531Z,16.71
2018-05-14T04:41:21.541Z,16.61
2018-05-14T04:42:21.304Z,16.64
2018-05-14T04:43:21.327Z,16.72
2018-05-14T04:44:21.354Z,16.74
2018-05-14T04:45:21.423Z,16.64
2018-05-14T04:46:21.401Z,16.58
2018-05-14T04:47:21.416Z,16.57
2018-05-14T04:48:21.441Z,16.57
2018-05-14T04:49:21.716Z,16.47
2018-05-14T04:50:21.787Z,16.41
2018-05-14T04:51:21.274Z,16.36
2018-05-14T04:52:21.534Z,16.41
2018-05-14T04:53:21.559Z,16.56
2018-05-14T04:54:21.657Z,16.61
2018-05-14T04:55:21.851Z,16.61
2018-05-14T04:56:21.631Z,16.54
2018-05-14T04:57:21.648Z,16.64
2018-05-14T04:58:21.919Z,16.57
2018-05-14T04:59:22.383Z,16.56
2018-05-14T05:00:21.709Z,16.66
2018-05-14T05:01:21.996Z,16.6
2018-05-14T05:02:22.013Z,16.54
2018-05-14T05:03:22.037Z,16.6
2018-05-14T05:04:22.059Z,16.69
2018-05-14T05:05:22.127Z,16.71
2018-05-14T05:06:22.102Z,16.61
2018-05-14T05:07:22.127Z,16.61
2018-05-14T05:08:21.894Z,16.74
2018-05-14T05:09:22.165Z,16.66
2018-05-14T05:10:22.101Z,16.64
2018-05-14T05:11:22.022Z,16.54
2018-05-14T05:12:21.970Z,16.68
2018-05-14T05:13:22.257Z,16.65
2018-05-14T05:14:22.285Z,16.54
2018-05-14T05:15:22.044Z,16.58
2018-05-14T05:16:22.070Z,16.58
2018-05-14T05:17:22.345Z,16.72
2018-05-14T05:18:22.115Z,16.57
2018-05-14T05:19:22.390Z,16.6
2018-05-14T05:20:22.205Z,16.71
2018-05-14T05:21:22.204Z,16.61
2018-05-14T05:22:22.456Z,16.66
2018-05-14T05:23:22.229Z,16.81
2018-05-14T05:24:22.248Z,16.97
2018-05-14T05:25:22.532Z,16.91
2018-05-14T05:26:22.550Z,16.94
2018-05-14T05:27:22.570Z,16.81
2018-05-14T05:28:22.722Z,16.76
2018-05-14T05:29:22.352Z,16.76
2018-05-14T05:30:22.373Z,16.64
2018-05-14T05:31:22.659Z,16.65
2018-05-14T05:32:22.422Z,16.75
2018-05-14T05:33:22.454Z,16.93
2018-05-14T05:34:22.728Z,16.97
2018-05-14T05:35:22.790Z,16.93
2018-05-14T05:36:22.510Z,17.05
2018-05-14T05:37:22.795Z,16.99
2018-05-14T05:38:22.577Z,17.05
2018-05-14T05:39:22.838Z,17.05
2018-05-14T05:40:22.706Z,17.14
2018-05-14T05:41:22.880Z,17.23
2018-05-14T05:42:22.902Z,17.27
2018-05-14T05:43:22.924Z,17.38
2018-05-14T05:44:22.954Z,17.45
2018-05-14T05:45:22.840Z,17.52
2018-05-14T05:46:22.737Z,17.57
2018-05-14T05:47:23.017Z,17.57
2018-05-14T05:48:23.034Z,17.57
2018-05-14T05:49:23.061Z,17.34
2018-05-14T05:50:23.085Z,17.36
2018-05-14T05:51:23.104Z,17.42
2018-05-14T05:52:23.207Z,17.45
2018-05-14T05:53:22.896Z,17.39
2018-05-14T05:54:23.177Z,17.39
2018-05-14T05:55:23.195Z,17.38
2018-05-14T05:56:23.221Z,17.44
2018-05-14T05:57:23.237Z,17.33
2018-05-14T05:58:23.005Z,17.11
2018-05-14T05:59:23.286Z,17.3
2018-05-14T06:00:23.200Z,17.33
2018-05-14T06:01:23.471Z,17.42
2018-05-14T06:02:23.349Z,17.34
2018-05-14T06:03:23.386Z,17.38
2018-05-14T06:04:23.404Z,17.22
2018-05-14T06:05:23.431Z,17.26
2018-05-14T06:06:23.451Z,17.34
2018-05-14T06:07:23.470Z,17.34
2018-05-14T06:08:23.505Z,17.38
2018-05-14T06:09:23.292Z,17.27
2018-05-14T06:10:23.285Z,17.39
2018-05-14T06:11:23.559Z,17.38
2018-05-14T06:12:23.586Z,17.41
2018-05-14T06:13:23.348Z,17.51
2018-05-14T06:14:23.631Z,17.46
2018-05-14T06:15:25.020Z,17.39
2018-05-14T06:16:23.671Z,17.52
2018-05-14T06:17:23.693Z,17.59
2018-05-14T06:18:23.721Z,17.71
2018-05-14T06:19:23.742Z,17.65
2018-05-14T06:20:23.521Z,17.71
2018-05-14T06:21:23.841Z,17.72
2018-05-14T06:22:23.975Z,17.83
2018-05-14T06:23:23.574Z,17.89
2018-05-14T06:24:23.852Z,17.79
2018-05-14T06:25:23.878Z,17.95
2018-05-14T06:26:23.648Z,17.83
2018-05-14T06:27:23.954Z,17.97
2018-05-14T06:28:23.693Z,17.94
2018-05-14T06:29:23.461Z,17.71
2018-05-14T06:30:23.786Z,17.87
2018-05-14T06:31:23.761Z,18.08
2018-05-14T06:32:24.031Z,18.15
2018-05-14T06:33:24.048Z,18.07
2018-05-14T06:34:23.808Z,18.03
2018-05-14T06:35:24.262Z,17.95
2018-05-14T06:36:24.115Z,18.19
2018-05-14T06:37:24.133Z,18.28
2018-05-14T06:38:24.156Z,18.41
2018-05-14T06:39:24.195Z,18.28
2018-05-14T06:40:24.214Z,18.34
2018-05-14T06:41:24.242Z,18.47
2018-05-14T06:42:24.271Z,18.5
2018-05-14T06:43:24.285Z,18.56
2018-05-14T06:44:23.826Z,18.7
2018-05-14T06:45:24.390Z,18.7
2018-05-14T06:46:24.566Z,18.47
2018-05-14T06:47:24.383Z,18.52
2018-05-14T06:48:24.159Z,18.47
2018-05-14T06:49:24.182Z,18.56
2018-05-14T06:50:24.458Z,18.53
2018-05-14T06:51:23.974Z,18.84
2018-05-14T06:52:24.511Z,18.84
2018-05-14T06:53:24.278Z,18.75
2018-05-14T06:54:24.554Z,18.66
2018-05-14T06:55:24.577Z,18.6
2018-05-14T06:56:24.355Z,18.6
2018-05-14T06:57:24.374Z,18.58
2018-05-14T06:58:24.649Z,18.77
2018-05-14T06:59:24.426Z,18.96
2018-05-14T07:00:24.495Z,19.22
2018-05-14T07:01:24.466Z,19.39
2018-05-14T07:02:24.753Z,19.18
2018-05-14T07:03:24.769Z,19.11
2018-05-14T07:04:24.550Z,18.86
2018-05-14T07:05:24.566Z,18.58
2018-05-14T07:06:24.844Z,18.5
2018-05-14T07:07:24.868Z,18.78
2018-05-14T07:08:24.379Z,18.83
2018-05-14T07:09:24.906Z,19.02
2018-05-14T07:10:24.427Z,19.07
2018-05-14T07:11:25.045Z,19.15
2018-05-14T07:12:24.980Z,19.22
2018-05-14T07:13:25.000Z,19.04
2018-05-14T07:14:24.778Z,19.08
2018-05-14T07:15:24.903Z,19.3
2018-05-14T07:16:25.076Z,19.21
2018-05-14T07:17:25.099Z,19.19
2018-05-14T07:18:25.131Z,19.14
2018-05-14T07:19:25.395Z,19.04
2018-05-14T07:20:25.383Z,19.39
2018-05-14T07:21:25.203Z,19.79
2018-05-14T07:22:25.225Z,20.06
2018-05-14T07:23:25.286Z,20.26
2018-05-14T07:24:25.282Z,20.47
2018-05-14T07:25:25.054Z,20.74
2018-05-14T07:26:25.333Z,20.9
2018-05-14T07:27:25.355Z,20.99
2018-05-14T07:28:25.126Z,21.03
2018-05-14T07:29:25.401Z,21.05
2018-05-14T07:30:25.428Z,21.03
2018-05-14T07:31:25.452Z,21.02
2018-05-14T07:32:25.472Z,21
2018-05-14T07:33:25.500Z,21.06
2018-05-14T07:34:25.520Z,21.25
2018-05-14T07:35:25.551Z,21.48
2018-05-14T07:36:25.485Z,21.66
2018-05-14T07:37:25.587Z,21.79
2018-05-14T07:38:25.613Z,21.85
2018-05-14T07:39:25.644Z,21.89
2018-05-14T07:40:25.849Z,21.99
2018-05-14T07:41:25.689Z,21.93
2018-05-14T07:42:25.464Z,21.75
2018-05-14T07:43:25.738Z,21.7
2018-05-14T07:44:25.767Z,21.73
2018-05-14T07:45:25.801Z,21.82
2018-05-14T07:46:25.831Z,22.02
2018-05-14T07:47:25.859Z,22.06
2018-05-14T07:48:25.880Z,21.99
2018-05-14T07:49:25.908Z,21.82
2018-05-14T07:50:25.683Z,21.79
2018-05-14T07:51:25.958Z,21.93
2018-05-14T07:52:25.996Z,21.89
2018-05-14T07:53:26.014Z,21.93
2018-05-14T07:54:25.994Z,21.93
2018-05-14T07:55:26.069Z,21.95
2018-05-14T07:56:26.134Z,21.96
2018-05-14T07:57:25.859Z,22.04
2018-05-14T07:58:26.136Z,22.22
2018-05-14T07:59:25.906Z,22.32
2018-05-14T08:00:26.009Z,22.36
2018-05-14T08:01:25.984Z,22.44
2018-05-14T08:02:26.240Z,22.29
2018-05-14T08:03:26.012Z,22.47
2018-05-14T08:04:25.780Z,22.3
2018-05-14T08:05:26.314Z,22.44
2018-05-14T08:06:25.954Z,22.41
2018-05-14T08:07:26.370Z,22.47
2018-05-14T08:08:26.405Z,22.47
2018-05-14T08:09:26.163Z,22.44
2018-05-14T08:10:26.448Z,22.36
2018-05-14T08:11:27.724Z,22.22
2018-05-14T08:12:26.495Z,22.17
2018-05-14T08:13:26.526Z,22.15
2018-05-14T08:14:26.794Z,22.1
2018-05-14T08:15:26.570Z,22.15
2018-05-14T08:16:26.597Z,22.17
2018-05-14T08:17:26.369Z,22.26
2018-05-14T08:18:26.649Z,22.15
2018-05-14T08:19:26.671Z,22.25
2018-05-14T08:20:26.441Z,22.35
2018-05-14T08:21:26.849Z,22.45
2018-05-14T08:22:26.501Z,22.5
2018-05-14T08:23:26.855Z,22.6
2018-05-14T08:24:26.550Z,22.47
2018-05-14T08:25:26.836Z,22.62
2018-05-14T08:26:26.654Z,22.69
2018-05-14T08:27:26.880Z,22.81
2018-05-14T08:28:26.911Z,22.83
2018-05-14T08:29:26.678Z,22.76
2018-05-14T08:30:26.959Z,22.81
2018-05-14T08:31:26.838Z,22.83
2018-05-14T08:32:26.757Z,22.94
2018-05-14T08:33:27.036Z,23.06
2018-05-14T08:34:26.808Z,23.05
2018-05-14T08:35:26.835Z,22.9
2018-05-14T08:36:27.092Z,22.94
2018-05-14T08:37:27.120Z,22.99
2018-05-14T08:38:27.151Z,23.13
2018-05-14T08:39:26.918Z,23.24
2018-05-14T08:40:26.947Z,23.39
2018-05-14T08:41:27.234Z,23.51
2018-05-14T08:42:27.030Z,23.71
2018-05-14T08:43:27.282Z,23.86
2018-05-14T08:44:27.317Z,23.84
2018-05-14T08:45:27.340Z,23.92
2018-05-14T08:46:27.421Z,23.93
2018-05-14T08:47:27.405Z,24.14
2018-05-14T08:48:27.426Z,24.24
2018-05-14T08:49:27.546Z,24.29
2018-05-14T08:50:27.219Z,24.45
2018-05-14T08:51:27.510Z,24.51
2018-05-14T08:52:27.540Z,24.68
2018-05-14T08:53:27.829Z,24.69
2018-05-14T08:54:28.064Z,24.78
2018-05-14T08:55:27.624Z,25.11
2018-05-14T08:56:27.399Z,25.21
2018-05-14T08:57:27.419Z,25.18
2018-05-14T08:58:27.723Z,25.35
2018-05-14T08:59:27.474Z,25.58
2018-05-14T09:00:27.750Z,25.53
2018-05-14T09:01:27.830Z,25.4
2018-05-14T09:02:27.816Z,25.36
2018-05-14T09:03:27.597Z,25.38
2018-05-14T09:04:27.883Z,25.43
2018-05-14T09:05:27.382Z,25.25
2018-05-14T09:06:27.411Z,25.16
2018-05-14T09:07:27.691Z,25.11
2018-05-14T09:08:27.727Z,25.06
2018-05-14T09:09:28.013Z,24.99
2018-05-14T09:10:28.034Z,25.06
2018-05-14T09:11:27.802Z,25.23
2018-05-14T09:12:27.821Z,25.23
2018-05-14T09:13:27.856Z,25.25
2018-05-14T09:14:28.129Z,25.62
2018-05-14T09:15:28.154Z,25.54
2018-05-14T09:16:28.242Z,25.68
2018-05-14T09:17:27.962Z,25.46
2018-05-14T09:18:27.990Z,25.55
2018-05-14T09:19:27.871Z,25.72
2018-05-14T09:20:28.295Z,25.55
2018-05-14T09:21:28.067Z,25.55
2018-05-14T09:22:28.106Z,25.4
2018-05-14T09:23:28.391Z,25.26
2018-05-14T09:24:28.429Z,25.21
2018-05-14T09:25:28.484Z,25.18
2018-05-14T09:26:28.225Z,25.26
2018-05-14T09:27:28.525Z,25.36
2018-05-14T09:28:28.531Z,25.16
2018-05-14T09:29:28.555Z,25.13
2018-05-14T09:30:28.328Z,25.07
2018-05-14T09:31:28.694Z,25.1
2018-05-14T09:32:28.642Z,25.1
2018-05-14T09:33:28.412Z,25.13
2018-05-14T09:34:28.696Z,25.1
2018-05-14T09:35:28.466Z,25.16
2018-05-14T09:36:28.808Z,25.18
2018-05-14T09:37:28.771Z,25.08
2018-05-14T09:38:28.800Z,25.23
2018-05-14T09:39:28.833Z,25.25
2018-05-14T09:40:28.850Z,25.4
2018-05-14T09:41:28.875Z,25.54
2018-05-14T09:42:28.910Z,25.4
2018-05-14T09:43:28.679Z,25.36
2018-05-14T09:44:28.740Z,25.38
2018-05-14T09:45:28.985Z,25.43
2018-05-14T09:46:29.064Z,25.54
2018-05-14T09:47:28.846Z,25.55
2018-05-14T09:48:28.823Z,25.53
2018-05-14T09:49:28.844Z,25.55
2018-05-14T09:50:29.416Z,25.7
2018-05-14T09:51:28.895Z,25.66
2018-05-14T09:52:28.928Z,25.87
2018-05-14T09:53:28.956Z,25.84
2018-05-14T09:54:29.239Z,26.07
2018-05-14T09:55:29.263Z,26.15
2018-05-14T09:56:29.299Z,26.22
2018-05-14T09:57:29.427Z,26.48
2018-05-14T09:58:29.357Z,26.55
2018-05-14T09:59:29.388Z,26.83
2018-05-14T10:00:29.404Z,26.92
2018-05-14T10:01:29.487Z,27.22
2018-05-14T10:02:29.208Z,27.63
2018-05-14T10:03:29.658Z,27.47
2018-05-14T10:04:29.263Z,27.33
2018-05-14T10:05:29.312Z,27.18
2018-05-14T10:06:29.332Z,27.12
2018-05-14T10:07:29.614Z,27.02
2018-05-14T10:08:29.390Z,26.95
2018-05-14T10:09:29.413Z,26.7
2018-05-14T10:10:29.447Z,26.71
2018-05-14T10:11:29.735Z,26.59
2018-05-14T10:12:29.760Z,26.37
2018-05-14T10:13:29.796Z,26.4
2018-05-14T10:14:29.568Z,26.4
2018-05-14T10:15:29.593Z,26.33
2018-05-14T10:16:29.923Z,26.23
2018-05-14T10:17:29.906Z,26.31
2018-05-14T10:18:29.932Z,26.31
2018-05-14T10:19:29.994Z,26.23
2018-05-14T10:20:29.986Z,26.09
2018-05-14T10:21:29.760Z,25.87
2018-05-14T10:22:29.800Z,25.96
2018-05-14T10:23:30.138Z,26.09
2018-05-14T10:24:29.853Z,26.05
2018-05-14T10:25:30.129Z,26.1
2018-05-14T10:26:29.904Z,26.38
2018-05-14T10:27:30.206Z,26.4
2018-05-14T10:28:30.214Z,26.52
2018-05-14T10:29:30.054Z,26.59
2018-05-14T10:30:30.278Z,26.71
2018-05-14T10:31:29.840Z,27.1
2018-05-14T10:32:30.081Z,27.22
2018-05-14T10:33:30.456Z,27.32
2018-05-14T10:34:30.393Z,27.48
2018-05-14T10:35:30.423Z,27.92
2018-05-14T10:36:30.454Z,27.67
2018-05-14T10:37:30.476Z,27.67
2018-05-14T10:38:30.249Z,27.74
2018-05-14T10:39:30.277Z,27.93
2018-05-14T10:40:30.305Z,28.01
2018-05-14T10:41:30.338Z,28.08
2018-05-14T10:42:30.367Z,28.15
2018-05-14T10:43:30.661Z,28.48
2018-05-14T10:44:30.679Z,28.41
2018-05-14T10:45:30.709Z,28.51
2018-05-14T10:46:30.526Z,28.69
2018-05-14T10:47:30.761Z,28.84
2018-05-14T10:48:30.799Z,29.02
2018-05-14T10:49:30.832Z,29.2
2018-05-14T10:50:30.856Z,29.13
2018-05-14T10:51:30.883Z,29.16
2018-05-14T10:52:30.935Z,29.2
2018-05-14T10:53:30.942Z,29.24
2018-05-14T10:54:31.041Z,29.23
2018-05-14T10:55:30.498Z,29.5
2018-05-14T10:56:30.798Z,29.42
2018-05-14T10:57:30.816Z,29.41
2018-05-14T10:58:30.914Z,29.65
2018-05-14T10:59:31.124Z,29.94
2018-05-14T11:00:30.907Z,30.23
2018-05-14T11:01:30.991Z,30.44
2018-05-14T11:02:31.228Z,30.69
2018-05-14T11:03:31.250Z,31.18
2018-05-14T11:04:31.285Z,31.29
2018-05-14T11:05:30.804Z,31.73
2018-05-14T11:06:31.342Z,31.8
2018-05-14T11:07:31.372Z,31.54
2018-05-14T11:08:31.156Z,31.37
2018-05-14T11:09:31.184Z,31.05
2018-05-14T11:10:31.393Z,30.9
2018-05-14T11:11:31.506Z,30.54
2018-05-14T11:12:31.539Z,30.3
2018-05-14T11:13:31.313Z,30.44
2018-05-14T11:14:31.631Z,30.23
2018-05-14T11:15:31.377Z,30.3
2018-05-14T11:16:31.459Z,30.16
2018-05-14T11:17:31.449Z,29.71
2018-05-14T11:18:31.470Z,29.39
2018-05-14T11:19:31.763Z,29.26
2018-05-14T11:20:31.800Z,29.24
2018-05-14T11:21:31.568Z,29.73
2018-05-14T11:22:31.596Z,29.6
2018-05-14T11:23:31.879Z,29.71
2018-05-14T11:24:31.402Z,30
2018-05-14T11:25:31.949Z,30
2018-05-14T11:26:31.881Z,30.06
2018-05-14T11:27:31.898Z,30.31
2018-05-14T11:28:32.037Z,30.21
2018-05-14T11:29:32.084Z,30.43
2018-05-14T11:30:31.856Z,30.9
2018-05-14T11:31:32.185Z,31.55
2018-05-14T11:32:32.160Z,31.99
2018-05-14T11:33:32.197Z,32.46
2018-05-14T11:34:31.970Z,32.48
2018-05-14T11:35:32.161Z,33.12
2018-05-14T11:36:32.286Z,33
2018-05-14T11:37:32.319Z,33.3
2018-05-14T11:38:32.372Z,33.04
2018-05-14T11:39:32.390Z,32.82
2018-05-14T11:40:32.161Z,32.48
2018-05-14T11:41:32.243Z,31.99
2018-05-14T11:42:32.227Z,31.7
2018-05-14T11:43:32.263Z,31.33
2018-05-14T11:44:32.550Z,31.05
2018-05-14T11:45:32.324Z,30.81
2018-05-14T11:46:32.608Z,30.96
2018-05-14T11:47:32.645Z,31.05
2018-05-14T11:48:32.675Z,30.92
2018-05-14T11:49:32.445Z,31.05
2018-05-14T11:50:32.484Z,30.88
2018-05-14T11:51:32.768Z,30.65
2018-05-14T11:52:32.800Z,30.37
2018-05-14T11:53:32.820Z,30.43
2018-05-14T11:54:32.851Z,30.24
2018-05-14T11:55:32.882Z,29.95
2018-05-14T11:56:32.710Z,30.23
2018-05-14T11:57:32.691Z,30.34
2018-05-14T11:58:32.735Z,30.39
2018-05-14T11:59:33.015Z,30.18
2018-05-14T12:00:33.037Z,30.02
2018-05-14T12:01:32.562Z,29.79
2018-05-14T12:02:33.107Z,29.88
2018-05-14T12:03:32.630Z,29.72
2018-05-14T12:04:33.167Z,29.29
2018-05-14T12:05:32.947Z,29.2
2018-05-14T12:06:32.979Z,28.98
2018-05-14T12:07:33.258Z,29.2
2018-05-14T12:08:33.297Z,29.75
2018-05-14T12:09:33.074Z,30.57
2018-05-14T12:10:33.355Z,31.15
2018-05-14T12:11:32.928Z,31.74
2018-05-14T12:12:33.416Z,32.23
2018-05-14T12:13:33.195Z,32.19
2018-05-14T12:14:33.222Z,31.96
2018-05-14T12:15:33.511Z,31.61
2018-05-14T12:16:33.406Z,31.62
2018-05-14T12:17:33.585Z,31.85
2018-05-14T12:18:33.605Z,32.27
2018-05-14T12:19:33.383Z,32.87
2018-05-14T12:20:33.685Z,33.67
2018-05-14T12:21:33.683Z,34.11
2018-05-14T12:22:33.721Z,33.99
2018-05-14T12:23:33.750Z,34.08
2018-05-14T12:24:33.533Z,34.32
2018-05-14T12:25:33.818Z,34.57
2018-05-14T12:26:33.614Z,35.05
2018-05-14T12:27:33.633Z,35.56
2018-05-14T12:28:33.912Z,35.85
2018-05-14T12:29:33.698Z,36.27
2018-05-14T12:30:33.745Z,36.67
2018-05-14T12:31:33.779Z,36.77
2018-05-14T12:32:33.556Z,36.93
2018-05-14T12:33:34.098Z,36.98
2018-05-14T12:34:34.132Z,36.83
2018-05-14T12:35:33.922Z,36.96
2018-05-14T12:36:34.226Z,37.59
2018-05-14T12:37:34.076Z,37.49
2018-05-14T12:38:34.277Z,37.51
2018-05-14T12:39:34.053Z,37.92
2018-05-14T12:40:34.331Z,38.04
2018-05-14T12:41:33.860Z,38.31
2018-05-14T12:42:34.398Z,38.76
2018-05-14T12:43:34.181Z,39
2018-05-14T12:44:34.468Z,39.33
2018-05-14T12:45:34.567Z,39.24
2018-05-14T12:46:34.299Z,39.46
2018-05-14T12:47:34.592Z,39.44
2018-05-14T12:48:34.373Z,39.34
2018-05-14T12:49:34.662Z,39.75
2018-05-14T12:50:34.790Z,39.19
2018-05-14T12:51:34.721Z,39.52
2018-05-14T12:52:34.504Z,40.02
2018-05-14T12:53:34.798Z,40.26
2018-05-14T12:54:34.831Z,39.92
2018-05-14T12:55:34.911Z,39.25